createdAt,value
2022-11-27T00:00:00.054Z,16.37
2022-11-27T00:00:31.587Z,16.35
2022-11-27T00:01:02.976Z,16.36
2022-11-27T00:01:34.366Z,16.35
2022-11-27T00:02:05.816Z,16.35
2022-11-27T00:02:40.538Z,16.35
2022-11-27T00:03:12.462Z,16.34
2022-11-27T00:03:44.035Z,16.35
2022-11-27T00:04:15.653Z,16.34
2022-11-27T00:04:47.078Z,16.33
2022-11-27T00:05:18.615Z,16.33
2022-11-27T00:05:50.059Z,16.32
2022-11-27T00:06:21.492Z,16.32
2022-11-27T00:06:52.907Z,16.32
2022-11-27T00:07:24.323Z,16.32
2022-11-27T00:07:55.863Z,16.32
2022-11-27T00:08:27.309Z,16.31
2022-11-27T00:08:58.691Z,16.30
2022-11-27T00:09:30.137Z,16.30
2022-11-27T00:10:01.529Z,16.29
2022-11-27T00:10:33.049Z,16.29
2022-11-27T00:11:04.478Z,16.29
2022-11-27T00:11:35.875Z,16.29
2022-11-27T00:12:07.283Z,16.29
2022-11-27T00:12:38.690Z,16.28
2022-11-27T00:13:10.076Z,16.29
2022-11-27T00:13:41.500Z,16.26
2022-11-27T00:14:12.882Z,16.27
2022-11-27T00:14:44.275Z,16.27
2022-11-27T00:15:17.351Z,16.26
2022-11-27T00:15:49.054Z,16.26
2022-11-27T00:16:20.547Z,16.25
2022-11-27T00:16:51.975Z,16.25
2022-11-27T00:17:23.357Z,16.24
2022-11-27T00:17:54.763Z,16.24
2022-11-27T00:18:26.163Z,16.23
2022-11-27T00:18:57.552Z,16.24
2022-11-27T00:19:28.946Z,16.23
2022-11-27T00:20:00.326Z,16.22
2022-11-27T00:20:31.711Z,16.22
2022-11-27T00:21:03.239Z,16.22
2022-11-27T00:21:34.663Z,16.22
2022-11-27T00:22:06.059Z,16.22
2022-11-27T00:22:37.455Z,16.21
2022-11-27T00:23:08.868Z,16.21
2022-11-27T00:23:40.258Z,16.21
2022-11-27T00:24:11.652Z,16.19
2022-11-27T00:24:43.047Z,16.20
2022-11-27T00:25:14.451Z,16.19
2022-11-27T00:25:45.842Z,16.18
2022-11-27T00:26:17.311Z,16.19
2022-11-27T00:26:48.717Z,16.19
2022-11-27T00:27:20.126Z,16.19
2022-11-27T00:27:51.557Z,16.18
2022-11-27T00:28:22.947Z,16.18
2022-11-27T00:28:54.343Z,16.18
2022-11-27T00:29:25.740Z,16.16
2022-11-27T00:29:57.137Z,16.17
2022-11-27T00:30:28.528Z,16.18
2022-11-27T00:30:59.941Z,16.16
2022-11-27T00:31:31.417Z,16.16
2022-11-27T00:32:02.859Z,16.16
2022-11-27T00:32:34.258Z,16.16
2022-11-27T00:33:05.638Z,16.15
2022-11-27T00:33:37.027Z,16.14
2022-11-27T00:34:08.424Z,16.15
2022-11-27T00:34:40.172Z,16.14
2022-11-27T00:35:11.776Z,16.14
2022-11-27T00:35:43.177Z,16.14
2022-11-27T00:36:14.593Z,16.14
2022-11-27T00:36:48.269Z,16.14
2022-11-27T00:37:19.938Z,16.13
2022-11-27T00:37:51.327Z,16.14
2022-11-27T00:38:22.731Z,16.13
2022-11-27T00:38:54.119Z,16.13
2022-11-27T00:39:25.521Z,16.12
2022-11-27T00:39:56.941Z,16.12
2022-11-27T00:40:28.331Z,16.11
2022-11-27T00:40:59.715Z,16.10
2022-11-27T00:41:31.108Z,16.11
2022-11-27T00:42:02.559Z,16.10
2022-11-27T00:42:33.986Z,16.10
2022-11-27T00:43:05.375Z,16.10
2022-11-27T00:43:43.573Z,16.09
2022-11-27T00:44:16.174Z,16.08
2022-11-27T00:44:47.568Z,16.08
2022-11-27T00:45:18.988Z,16.08
2022-11-27T00:45:50.372Z,16.08
2022-11-27T00:46:25.394Z,16.07
2022-11-27T00:46:59.423Z,16.07
2022-11-27T00:47:30.947Z,16.06
2022-11-27T00:48:02.349Z,16.06
2022-11-27T00:48:33.744Z,16.05
2022-11-27T00:49:05.154Z,16.06
2022-11-27T00:49:36.547Z,16.05
2022-11-27T00:50:07.933Z,16.05
2022-11-27T00:50:39.323Z,16.04
2022-11-27T00:51:10.720Z,16.05
2022-11-27T00:51:42.124Z,16.04
2022-11-27T00:52:13.523Z,16.03
2022-11-27T00:52:44.998Z,16.04
2022-11-27T00:53:16.401Z,16.04
2022-11-27T00:53:47.787Z,16.03
2022-11-27T00:54:22.687Z,16.02
2022-11-27T00:54:54.360Z,16.02
2022-11-27T00:55:25.756Z,16.02
2022-11-27T00:55:57.171Z,16.02
2022-11-27T00:56:28.565Z,16.02
2022-11-27T00:56:59.954Z,16.01
2022-11-27T00:57:31.338Z,16.00
2022-11-27T00:58:02.876Z,16.00
2022-11-27T00:58:34.274Z,16.00
2022-11-27T00:59:05.666Z,15.99
2022-11-27T00:59:37.076Z,16.00
2022-11-27T01:00:08.465Z,15.99
2022-11-27T01:00:39.879Z,15.99
2022-11-27T01:01:11.422Z,15.99
2022-11-27T01:01:42.887Z,15.99
2022-11-27T01:02:14.455Z,15.98
2022-11-27T01:02:45.943Z,15.97
2022-11-27T01:03:17.467Z,15.98
2022-11-27T01:03:48.939Z,15.97
2022-11-27T01:04:20.328Z,15.96
2022-11-27T01:04:51.745Z,15.96
2022-11-27T01:05:23.154Z,15.96
2022-11-27T01:05:54.566Z,15.96
2022-11-27T01:06:25.974Z,15.94
2022-11-27T01:06:57.361Z,15.95
2022-11-27T01:07:28.787Z,15.94
2022-11-27T01:08:00.207Z,15.94
2022-11-27T01:08:31.636Z,15.94
2022-11-27T01:09:02.994Z,15.93
2022-11-27T01:09:34.403Z,15.93
2022-11-27T01:10:05.798Z,15.93
2022-11-27T01:10:37.220Z,15.93
2022-11-27T01:11:08.626Z,15.92
2022-11-27T01:11:40.010Z,15.91
2022-11-27T01:12:11.400Z,15.90
2022-11-27T01:12:42.883Z,15.92
2022-11-27T01:13:14.272Z,15.92
2022-11-27T01:13:45.750Z,15.90
2022-11-27T01:14:17.137Z,15.89
2022-11-27T01:14:48.532Z,15.89
2022-11-27T01:15:19.952Z,15.89
2022-11-27T01:15:51.367Z,15.88
2022-11-27T01:16:22.849Z,15.88
2022-11-27T01:16:54.338Z,15.88
2022-11-27T01:17:25.758Z,15.87
2022-11-27T01:17:57.174Z,15.87
2022-11-27T01:18:28.583Z,15.87
2022-11-27T01:19:00.029Z,15.87
2022-11-27T01:19:31.459Z,15.86
2022-11-27T01:20:02.845Z,15.86
2022-11-27T01:20:34.238Z,15.86
2022-11-27T01:21:05.639Z,15.85
2022-11-27T01:21:37.029Z,15.85
2022-11-27T01:22:08.428Z,15.85
2022-11-27T01:22:39.819Z,15.85
2022-11-27T01:23:11.275Z,15.85
2022-11-27T01:23:42.804Z,15.84
2022-11-27T01:24:14.280Z,15.84
2022-11-27T01:24:45.671Z,15.83
2022-11-27T01:25:17.078Z,15.84
2022-11-27T01:25:48.472Z,15.83
2022-11-27T01:26:19.874Z,15.83
2022-11-27T01:26:51.263Z,15.82
2022-11-27T01:27:22.653Z,15.82
2022-11-27T01:27:54.054Z,15.83
2022-11-27T01:28:25.458Z,15.82
2022-11-27T01:28:56.849Z,15.82
2022-11-27T01:29:28.342Z,15.82
2022-11-27T01:29:59.734Z,15.81
2022-11-27T01:30:31.124Z,15.81
2022-11-27T01:31:02.577Z,15.79
2022-11-27T01:31:34.053Z,15.80
2022-11-27T01:32:05.510Z,15.80
2022-11-27T01:32:36.901Z,15.80
2022-11-27T01:33:08.313Z,15.79
2022-11-27T01:33:39.731Z,15.79
2022-11-27T01:34:11.172Z,15.78
2022-11-27T01:34:42.727Z,15.78
2022-11-27T01:35:14.160Z,15.79
2022-11-27T01:35:45.552Z,15.78
2022-11-27T01:36:16.947Z,15.77
2022-11-27T01:36:48.350Z,15.76
2022-11-27T01:37:19.767Z,15.77
2022-11-27T01:37:51.156Z,15.76
2022-11-27T01:38:22.555Z,15.75
2022-11-27T01:38:53.983Z,15.75
2022-11-27T01:39:25.394Z,15.75
2022-11-27T01:39:56.809Z,15.73
2022-11-27T01:40:28.339Z,15.73
2022-11-27T01:40:59.740Z,15.74
2022-11-27T01:41:31.159Z,15.71
2022-11-27T01:42:02.571Z,15.73
2022-11-27T01:42:33.978Z,15.73
2022-11-27T01:43:05.368Z,15.71
2022-11-27T01:43:36.781Z,15.72
2022-11-27T01:44:08.191Z,15.71
2022-11-27T01:44:40.019Z,15.71
2022-11-27T01:45:11.593Z,15.70
2022-11-27T01:45:42.997Z,15.70
2022-11-27T01:46:14.547Z,15.69
2022-11-27T01:46:46.015Z,15.68
2022-11-27T01:47:17.547Z,15.68
2022-11-27T01:47:48.976Z,15.69
2022-11-27T01:48:20.369Z,15.68
2022-11-27T01:48:51.755Z,15.69
2022-11-27T01:49:23.150Z,15.68
2022-11-27T01:49:54.578Z,15.68
2022-11-27T01:50:25.981Z,15.67
2022-11-27T01:50:57.388Z,15.67
2022-11-27T01:51:28.805Z,15.67
2022-11-27T01:52:00.203Z,15.66
2022-11-27T01:52:31.582Z,15.66
2022-11-27T01:53:02.986Z,15.66
2022-11-27T01:53:34.401Z,15.65
2022-11-27T01:54:05.760Z,15.65
2022-11-27T01:54:37.241Z,15.65
2022-11-27T01:55:08.819Z,15.64
2022-11-27T01:55:40.216Z,15.64
2022-11-27T01:56:11.601Z,15.64
2022-11-27T01:56:42.995Z,15.63
2022-11-27T01:57:14.393Z,15.63
2022-11-27T01:57:45.788Z,15.63
2022-11-27T01:58:17.180Z,15.61
2022-11-27T01:58:48.576Z,15.63
2022-11-27T01:59:19.959Z,15.62
2022-11-27T01:59:51.462Z,15.61
2022-11-27T02:00:22.850Z,15.61
2022-11-27T02:00:54.238Z,15.62
2022-11-27T02:01:25.660Z,15.61
2022-11-27T02:01:57.099Z,15.60
2022-11-27T02:02:28.626Z,15.59
2022-11-27T02:03:00.165Z,15.59
2022-11-27T02:03:31.611Z,15.60
2022-11-27T02:04:03.008Z,15.59
2022-11-27T02:04:34.417Z,15.60
2022-11-27T02:05:05.951Z,15.59
2022-11-27T02:05:37.365Z,15.58
2022-11-27T02:06:08.759Z,15.58
2022-11-27T02:06:40.214Z,15.58
2022-11-27T02:07:11.657Z,15.58
2022-11-27T02:07:43.187Z,15.58
2022-11-27T02:08:14.731Z,15.57
2022-11-27T02:08:46.122Z,15.57
2022-11-27T02:09:17.511Z,15.57
2022-11-27T02:09:48.906Z,15.56
2022-11-27T02:10:20.309Z,15.56
2022-11-27T02:10:51.702Z,15.56
2022-11-27T02:11:23.093Z,15.57
2022-11-27T02:11:54.495Z,15.55
2022-11-27T02:12:25.889Z,15.55
2022-11-27T02:12:57.294Z,15.54
2022-11-27T02:13:28.686Z,15.55
2022-11-27T02:14:00.088Z,15.55
2022-11-27T02:14:31.497Z,15.54
2022-11-27T02:15:03.046Z,15.54
2022-11-27T02:15:34.436Z,15.55
2022-11-27T02:16:05.880Z,15.53
2022-11-27T02:16:37.338Z,15.53
2022-11-27T02:17:08.772Z,15.52
2022-11-27T02:17:40.169Z,15.52
2022-11-27T02:18:11.563Z,15.53
2022-11-27T02:18:42.953Z,15.51
2022-11-27T02:19:14.352Z,15.50
2022-11-27T02:19:45.739Z,15.50
2022-11-27T02:20:17.188Z,15.51
2022-11-27T02:20:48.601Z,15.51
2022-11-27T02:21:20.019Z,15.50
2022-11-27T02:21:51.563Z,15.49
2022-11-27T02:22:22.944Z,15.49
2022-11-27T02:22:54.347Z,15.49
2022-11-27T02:23:25.754Z,15.48
2022-11-27T02:23:57.168Z,15.49
2022-11-27T02:24:28.551Z,15.46
2022-11-27T02:24:59.933Z,15.46
2022-11-27T02:25:31.450Z,15.46
2022-11-27T02:26:02.853Z,15.45
2022-11-27T02:26:34.239Z,15.46
2022-11-27T02:27:05.644Z,15.46
2022-11-27T02:27:37.040Z,15.46
2022-11-27T02:28:08.430Z,15.45
2022-11-27T02:28:39.841Z,15.44
2022-11-27T02:29:11.242Z,15.43
2022-11-27T02:29:42.652Z,15.43
2022-11-27T02:30:14.041Z,15.44
2022-11-27T02:30:45.559Z,15.43
2022-11-27T02:31:17.079Z,15.42
2022-11-27T02:31:48.656Z,15.42
2022-11-27T02:32:20.120Z,15.42
2022-11-27T02:32:51.515Z,15.42
2022-11-27T02:33:22.935Z,15.41
2022-11-27T02:33:54.326Z,15.40
2022-11-27T02:34:25.729Z,15.41
2022-11-27T02:34:57.151Z,15.41
2022-11-27T02:35:28.555Z,15.40
2022-11-27T02:36:00.088Z,15.40
2022-11-27T02:36:31.480Z,15.40
2022-11-27T02:37:02.882Z,15.39
2022-11-27T02:37:34.281Z,15.39
2022-11-27T02:38:05.703Z,15.40
2022-11-27T02:38:37.104Z,15.39
2022-11-27T02:39:08.499Z,15.38
2022-11-27T02:39:39.886Z,15.37
2022-11-27T02:40:11.274Z,15.38
2022-11-27T02:40:42.668Z,15.37
2022-11-27T02:41:14.141Z,15.37
2022-11-27T02:41:45.539Z,15.38
2022-11-27T02:42:16.950Z,15.37
2022-11-27T02:42:48.363Z,15.36
2022-11-27T02:43:19.759Z,15.37
2022-11-27T02:43:51.147Z,15.36
2022-11-27T02:44:22.612Z,15.36
2022-11-27T02:44:54.018Z,15.36
2022-11-27T02:45:25.439Z,15.36
2022-11-27T02:45:56.868Z,15.35
2022-11-27T02:46:28.452Z,15.36
2022-11-27T02:46:59.903Z,15.35
2022-11-27T02:47:31.298Z,15.34
2022-11-27T02:48:02.696Z,15.33
2022-11-27T02:48:34.081Z,15.32
2022-11-27T02:49:05.541Z,15.32
2022-11-27T02:49:36.936Z,15.32
2022-11-27T02:50:08.322Z,15.33
2022-11-27T02:50:39.739Z,15.33
2022-11-27T02:51:11.252Z,15.32
2022-11-27T02:51:42.648Z,15.32
2022-11-27T02:52:14.110Z,15.32
2022-11-27T02:52:45.534Z,15.31
2022-11-27T02:53:16.883Z,15.31
2022-11-27T02:53:48.275Z,15.31
2022-11-27T02:54:19.667Z,15.31
2022-11-27T02:54:51.095Z,15.30
2022-11-27T02:55:22.483Z,15.31
2022-11-27T02:55:53.881Z,15.30
2022-11-27T02:56:25.399Z,15.30
2022-11-27T02:56:56.918Z,15.30
2022-11-27T02:57:28.336Z,15.30
2022-11-27T02:57:59.723Z,15.29
2022-11-27T02:58:31.130Z,15.28
2022-11-27T02:59:02.521Z,15.29
2022-11-27T02:59:33.932Z,15.28
2022-11-27T03:00:05.327Z,15.27
2022-11-27T03:00:36.711Z,15.27
2022-11-27T03:01:08.094Z,15.26
2022-11-27T03:01:39.615Z,15.26
2022-11-27T03:02:11.046Z,15.27
2022-11-27T03:02:42.533Z,15.26
2022-11-27T03:03:13.980Z,15.26
2022-11-27T03:03:45.400Z,15.26
2022-11-27T03:04:16.811Z,15.26
2022-11-27T03:04:48.227Z,15.25
2022-11-27T03:05:19.621Z,15.25
2022-11-27T03:05:51.041Z,15.24
2022-11-27T03:06:22.439Z,15.25
2022-11-27T03:06:53.915Z,15.25
2022-11-27T03:07:25.378Z,15.24
2022-11-27T03:07:56.824Z,15.24
2022-11-27T03:08:28.244Z,15.24
2022-11-27T03:08:59.652Z,15.23
2022-11-27T03:09:31.048Z,15.23
2022-11-27T03:10:02.439Z,15.24
2022-11-27T03:10:33.851Z,15.23
2022-11-27T03:11:05.252Z,15.22
2022-11-27T03:11:36.656Z,15.23
2022-11-27T03:12:08.088Z,15.22
2022-11-27T03:12:39.483Z,15.21
2022-11-27T03:13:10.892Z,15.21
2022-11-27T03:13:42.307Z,15.22
2022-11-27T03:14:13.696Z,15.20
2022-11-27T03:14:45.088Z,15.20
2022-11-27T03:15:16.480Z,15.20
2022-11-27T03:15:47.907Z,15.21
2022-11-27T03:16:19.407Z,15.21
2022-11-27T03:16:50.854Z,15.20
2022-11-27T03:17:22.350Z,15.20
2022-11-27T03:17:53.748Z,15.20
2022-11-27T03:18:25.311Z,15.19
2022-11-27T03:18:56.726Z,15.18
2022-11-27T03:19:28.119Z,15.18
2022-11-27T03:19:59.532Z,15.18
2022-11-27T03:20:30.918Z,15.17
2022-11-27T03:21:02.314Z,15.18
2022-11-27T03:21:33.711Z,15.17
2022-11-27T03:22:05.121Z,15.17
2022-11-27T03:22:36.520Z,15.15
2022-11-27T03:23:07.919Z,15.16
2022-11-27T03:23:39.315Z,15.15
2022-11-27T03:24:10.723Z,15.15
2022-11-27T03:24:42.323Z,15.15
2022-11-27T03:25:13.858Z,15.14
2022-11-27T03:25:45.248Z,15.15
2022-11-27T03:26:16.648Z,15.14
2022-11-27T03:26:48.055Z,15.15
2022-11-27T03:27:19.544Z,15.13
2022-11-27T03:27:50.935Z,15.13
2022-11-27T03:28:22.322Z,15.13
2022-11-27T03:28:53.712Z,15.13
2022-11-27T03:29:25.126Z,15.12
2022-11-27T03:29:56.527Z,15.13
2022-11-27T03:30:27.929Z,15.12
2022-11-27T03:30:59.341Z,15.11
2022-11-27T03:31:30.799Z,15.11
2022-11-27T03:32:02.215Z,15.10
2022-11-27T03:32:33.626Z,15.10
2022-11-27T03:33:05.025Z,15.10
2022-11-27T03:33:36.453Z,15.10
2022-11-27T03:34:07.843Z,15.11
2022-11-27T03:34:39.456Z,15.09
2022-11-27T03:35:11.082Z,15.09
2022-11-27T03:35:42.477Z,15.09
2022-11-27T03:36:13.888Z,15.09
2022-11-27T03:36:45.283Z,15.08
2022-11-27T03:37:16.667Z,15.08
2022-11-27T03:37:48.105Z,15.08
2022-11-27T03:38:19.495Z,15.07
2022-11-27T03:38:50.882Z,15.08
2022-11-27T03:39:22.271Z,15.07
2022-11-27T03:39:53.666Z,15.06
2022-11-27T03:40:25.063Z,15.06
2022-11-27T03:40:56.451Z,15.06
2022-11-27T03:41:27.844Z,15.06
2022-11-27T03:41:59.246Z,15.06
2022-11-27T03:42:30.642Z,15.04
2022-11-27T03:43:02.076Z,15.05
2022-11-27T03:43:33.490Z,15.05
2022-11-27T03:44:04.877Z,15.04
2022-11-27T03:44:36.265Z,15.04
2022-11-27T03:45:07.671Z,15.05
2022-11-27T03:45:39.067Z,15.03
2022-11-27T03:46:10.524Z,15.03
2022-11-27T03:46:42.032Z,15.03
2022-11-27T03:47:13.577Z,15.03
2022-11-27T03:47:45.064Z,15.02
2022-11-27T03:48:16.610Z,15.02
2022-11-27T03:48:47.999Z,15.02
2022-11-27T03:49:19.388Z,15.02
2022-11-27T03:49:50.772Z,15.01
2022-11-27T03:50:22.158Z,15.02
2022-11-27T03:50:53.561Z,15.00
2022-11-27T03:51:24.987Z,15.00
2022-11-27T03:51:56.374Z,15.01
2022-11-27T03:52:27.763Z,15.00
2022-11-27T03:52:59.151Z,14.98
2022-11-27T03:53:30.672Z,15.01
2022-11-27T03:54:02.068Z,14.99
2022-11-27T03:54:33.503Z,14.99
2022-11-27T03:55:04.980Z,14.99
2022-11-27T03:55:36.379Z,14.99
2022-11-27T03:56:10.271Z,14.98
2022-11-27T03:56:41.852Z,14.98
2022-11-27T03:57:13.241Z,14.98
2022-11-27T03:57:44.635Z,14.97
2022-11-27T03:58:16.028Z,14.97
2022-11-27T03:58:47.478Z,14.96
2022-11-27T03:59:18.871Z,14.97
2022-11-27T03:59:50.269Z,14.96
2022-11-27T04:00:21.711Z,14.96
2022-11-27T04:00:53.102Z,14.96
2022-11-27T04:01:24.548Z,14.96
2022-11-27T04:01:56.080Z,14.96
2022-11-27T04:02:27.546Z,14.96
2022-11-27T04:02:58.966Z,14.95
2022-11-27T04:03:30.398Z,14.95
2022-11-27T04:04:01.992Z,14.95
2022-11-27T04:04:33.405Z,14.95
2022-11-27T04:05:04.820Z,14.94
2022-11-27T04:05:36.228Z,14.93
2022-11-27T04:06:07.615Z,14.94
2022-11-27T04:06:39.018Z,14.93
2022-11-27T04:07:10.477Z,14.92
2022-11-27T04:07:41.956Z,14.93
2022-11-27T04:08:13.419Z,14.93
2022-11-27T04:08:44.812Z,14.92
2022-11-27T04:09:16.314Z,14.92
2022-11-27T04:09:47.698Z,14.91
2022-11-27T04:10:19.087Z,14.91
2022-11-27T04:10:50.508Z,14.91
2022-11-27T04:11:21.889Z,14.91
2022-11-27T04:11:53.279Z,14.91
2022-11-27T04:12:24.674Z,14.90
2022-11-27T04:12:56.065Z,14.91
2022-11-27T04:13:27.455Z,14.90
2022-11-27T04:13:58.853Z,14.88
2022-11-27T04:14:30.391Z,14.89
2022-11-27T04:15:01.799Z,14.89
2022-11-27T04:15:33.185Z,14.88
2022-11-27T04:16:04.795Z,14.89
2022-11-27T04:16:36.319Z,14.89
2022-11-27T04:17:07.739Z,14.87
2022-11-27T04:17:39.123Z,14.87
2022-11-27T04:18:10.510Z,14.88
2022-11-27T04:18:41.898Z,14.88
2022-11-27T04:19:13.410Z,14.87
2022-11-27T04:19:44.794Z,14.88
2022-11-27T04:20:16.181Z,14.86
2022-11-27T04:20:47.571Z,14.87
2022-11-27T04:21:18.966Z,14.86
2022-11-27T04:21:50.382Z,14.86
2022-11-27T04:22:21.766Z,14.86
2022-11-27T04:22:53.163Z,14.85
2022-11-27T04:23:24.561Z,14.85
2022-11-27T04:23:55.951Z,14.85
2022-11-27T04:24:27.385Z,14.85
2022-11-27T04:24:58.767Z,14.84
2022-11-27T04:25:30.159Z,14.84
2022-11-27T04:26:01.548Z,14.84
2022-11-27T04:26:32.945Z,14.84
2022-11-27T04:27:04.338Z,14.83
2022-11-27T04:27:35.728Z,14.83
2022-11-27T04:28:07.114Z,14.83
2022-11-27T04:28:38.769Z,14.82
2022-11-27T04:29:10.208Z,14.82
2022-11-27T04:29:41.742Z,14.82
2022-11-27T04:30:13.131Z,14.82
2022-11-27T04:30:44.536Z,14.82
2022-11-27T04:31:15.970Z,14.81
2022-11-27T04:31:47.482Z,14.82
2022-11-27T04:32:18.908Z,14.82
2022-11-27T04:32:50.296Z,14.80
2022-11-27T04:33:21.682Z,14.80
2022-11-27T04:33:53.070Z,14.80
2022-11-27T04:34:24.467Z,14.80
2022-11-27T04:34:55.922Z,14.80
2022-11-27T04:35:27.308Z,14.80
2022-11-27T04:35:58.700Z,14.80
2022-11-27T04:36:32.561Z,14.80
2022-11-27T04:37:07.612Z,14.78
2022-11-27T04:37:39.028Z,14.78
2022-11-27T04:38:10.430Z,14.77
2022-11-27T04:38:41.814Z,14.78
2022-11-27T04:39:13.198Z,14.77
2022-11-27T04:39:44.587Z,14.77
2022-11-27T04:40:16.107Z,14.77
2022-11-27T04:40:47.515Z,14.77
2022-11-27T04:41:18.928Z,14.76
2022-11-27T04:41:50.322Z,14.76
2022-11-27T04:42:21.718Z,14.76
2022-11-27T04:42:53.108Z,14.75
2022-11-27T04:43:24.506Z,14.75
2022-11-27T04:43:55.911Z,14.75
2022-11-27T04:44:27.305Z,14.75
2022-11-27T04:44:58.819Z,14.74
2022-11-27T04:45:30.212Z,14.73
2022-11-27T04:46:01.617Z,14.73
2022-11-27T04:46:33.093Z,14.73
2022-11-27T04:47:04.627Z,14.73
2022-11-27T04:47:36.085Z,14.72
2022-11-27T04:48:07.587Z,14.73
2022-11-27T04:48:38.978Z,14.72
2022-11-27T04:49:10.366Z,14.72
2022-11-27T04:49:41.760Z,14.71
2022-11-27T04:50:13.496Z,14.72
2022-11-27T04:50:44.948Z,14.72
2022-11-27T04:51:16.350Z,14.71
2022-11-27T04:51:47.743Z,14.72
2022-11-27T04:52:19.163Z,14.71
2022-11-27T04:52:50.570Z,14.70
2022-11-27T04:53:21.968Z,14.70
2022-11-27T04:53:53.374Z,14.70
2022-11-27T04:54:24.787Z,14.70
2022-11-27T04:55:00.047Z,14.69
2022-11-27T04:55:31.951Z,14.70
2022-11-27T04:56:03.337Z,14.70
2022-11-27T04:56:34.730Z,14.70
2022-11-27T04:57:06.131Z,14.67
2022-11-27T04:57:37.513Z,14.68
2022-11-27T04:58:08.925Z,14.68
2022-11-27T04:58:40.322Z,14.68
2022-11-27T04:59:11.708Z,14.67
2022-11-27T04:59:43.281Z,14.67
2022-11-27T05:00:14.727Z,14.67
2022-11-27T05:00:46.297Z,14.66
2022-11-27T05:01:17.801Z,14.67
2022-11-27T05:01:49.211Z,14.66
2022-11-27T05:02:20.604Z,14.66
2022-11-27T05:02:52.087Z,14.65
2022-11-27T05:03:23.572Z,14.65
2022-11-27T05:03:55.003Z,14.65
2022-11-27T05:04:26.409Z,14.65
2022-11-27T05:04:57.815Z,14.65
2022-11-27T05:05:29.220Z,14.65
2022-11-27T05:06:00.635Z,14.65
2022-11-27T05:06:32.039Z,14.64
2022-11-27T05:07:03.432Z,14.64
2022-11-27T05:07:34.900Z,14.64
2022-11-27T05:08:06.345Z,14.63
2022-11-27T05:08:37.730Z,14.63
2022-11-27T05:09:09.142Z,14.62
2022-11-27T05:09:40.532Z,14.62
2022-11-27T05:10:11.916Z,14.62
2022-11-27T05:10:43.312Z,14.62
2022-11-27T05:11:14.772Z,14.61
2022-11-27T05:11:46.240Z,14.61
2022-11-27T05:12:17.634Z,14.61
2022-11-27T05:12:49.022Z,14.60
2022-11-27T05:13:20.419Z,14.60
2022-11-27T05:13:51.831Z,14.60
2022-11-27T05:14:23.220Z,14.58
2022-11-27T05:14:54.614Z,14.58
2022-11-27T05:15:26.083Z,14.58
2022-11-27T05:15:57.512Z,14.59
2022-11-27T05:16:29.045Z,14.58
2022-11-27T05:17:00.454Z,14.58
2022-11-27T05:17:31.891Z,14.57
2022-11-27T05:18:03.313Z,14.57
2022-11-27T05:18:34.711Z,14.57
2022-11-27T05:19:06.103Z,14.57
2022-11-27T05:19:37.494Z,14.57
2022-11-27T05:20:08.906Z,14.56
2022-11-27T05:20:40.286Z,14.56
2022-11-27T05:21:11.696Z,14.55
2022-11-27T05:21:43.179Z,14.56
2022-11-27T05:22:14.565Z,14.55
2022-11-27T05:22:45.951Z,14.55
2022-11-27T05:23:17.368Z,14.55
2022-11-27T05:23:48.759Z,14.55
2022-11-27T05:24:20.147Z,14.55
2022-11-27T05:24:51.535Z,14.54
2022-11-27T05:25:22.932Z,14.53
2022-11-27T05:25:54.331Z,14.53
2022-11-27T05:26:25.744Z,14.54
2022-11-27T05:26:57.239Z,14.53
2022-11-27T05:27:28.636Z,14.53
2022-11-27T05:28:00.025Z,14.52
2022-11-27T05:28:31.414Z,14.53
2022-11-27T05:29:02.801Z,14.53
2022-11-27T05:29:34.201Z,14.52
2022-11-27T05:30:05.608Z,14.51
2022-11-27T05:30:37.014Z,14.51
2022-11-27T05:31:08.462Z,14.51
2022-11-27T05:31:39.993Z,14.51
2022-11-27T05:32:11.513Z,14.51
2022-11-27T05:32:42.906Z,14.51
2022-11-27T05:33:14.299Z,14.51
2022-11-27T05:33:45.703Z,14.51
2022-11-27T05:34:17.102Z,14.51
2022-11-27T05:34:48.496Z,14.51
2022-11-27T05:35:19.904Z,14.51
2022-11-27T05:35:51.287Z,14.49
2022-11-27T05:36:22.706Z,14.50
2022-11-27T05:36:54.099Z,14.50
2022-11-27T05:37:25.543Z,14.50
2022-11-27T05:37:56.950Z,14.49
2022-11-27T05:38:28.343Z,14.49
2022-11-27T05:38:59.747Z,14.48
2022-11-27T05:39:31.223Z,14.48
2022-11-27T05:40:02.606Z,14.48
2022-11-27T05:40:34.171Z,14.47
2022-11-27T05:41:05.558Z,14.48
2022-11-27T05:41:36.959Z,14.47
2022-11-27T05:42:08.351Z,14.48
2022-11-27T05:42:39.827Z,14.46
2022-11-27T05:43:11.223Z,14.46
2022-11-27T05:43:42.643Z,14.46
2022-11-27T05:44:14.027Z,14.46
2022-11-27T05:44:45.414Z,14.45
2022-11-27T05:45:16.798Z,14.45
2022-11-27T05:45:48.186Z,14.44
2022-11-27T05:46:19.639Z,14.44
2022-11-27T05:46:51.140Z,14.44
2022-11-27T05:47:22.573Z,14.43
2022-11-27T05:47:54.107Z,14.43
2022-11-27T05:48:25.497Z,14.44
2022-11-27T05:48:56.905Z,14.44
2022-11-27T05:49:28.321Z,14.42
2022-11-27T05:49:59.709Z,14.43
2022-11-27T05:50:31.108Z,14.43
2022-11-27T05:51:02.500Z,14.42
2022-11-27T05:51:33.890Z,14.42
2022-11-27T05:52:05.292Z,14.42
2022-11-27T05:52:36.679Z,14.42
2022-11-27T05:53:08.150Z,14.41
2022-11-27T05:53:39.566Z,14.41
2022-11-27T05:54:10.955Z,14.41
2022-11-27T05:54:42.666Z,14.40
2022-11-27T05:55:14.158Z,14.40
2022-11-27T05:55:45.571Z,14.40
2022-11-27T05:56:16.965Z,14.40
2022-11-27T05:56:48.365Z,14.39
2022-11-27T05:57:19.809Z,14.39
2022-11-27T05:57:51.199Z,14.39
2022-11-27T05:58:22.650Z,14.39
2022-11-27T05:58:54.045Z,14.38
2022-11-27T05:59:25.443Z,14.38
2022-11-27T05:59:56.848Z,14.39
2022-11-27T06:00:28.258Z,14.40
2022-11-27T06:00:59.655Z,14.38
2022-11-27T06:01:31.111Z,14.38
2022-11-27T06:02:02.582Z,14.37
2022-11-27T06:02:34.118Z,14.36
2022-11-27T06:03:05.716Z,14.37
2022-11-27T06:03:37.330Z,14.37
2022-11-27T06:04:08.767Z,14.36
2022-11-27T06:04:40.421Z,14.35
2022-11-27T06:05:12.057Z,14.35
2022-11-27T06:05:43.450Z,14.35
2022-11-27T06:06:14.870Z,14.35
2022-11-27T06:06:46.326Z,14.35
2022-11-27T06:07:17.754Z,14.34
2022-11-27T06:07:49.293Z,14.34
2022-11-27T06:08:20.792Z,14.33
2022-11-27T06:08:52.287Z,14.33
2022-11-27T06:09:23.698Z,14.34
2022-11-27T06:09:55.095Z,14.33
2022-11-27T06:10:26.501Z,14.32
2022-11-27T06:10:57.896Z,14.32
2022-11-27T06:11:29.298Z,14.32
2022-11-27T06:12:00.918Z,14.32
2022-11-27T06:12:32.306Z,14.32
2022-11-27T06:13:03.696Z,14.31
2022-11-27T06:13:35.094Z,14.31
2022-11-27T06:14:06.559Z,14.32
2022-11-27T06:14:38.264Z,14.31
2022-11-27T06:15:09.850Z,14.31
2022-11-27T06:15:41.243Z,14.31
2022-11-27T06:16:12.665Z,14.30
2022-11-27T06:16:44.117Z,14.30
2022-11-27T06:17:15.538Z,14.31
2022-11-27T06:17:46.932Z,14.30
2022-11-27T06:18:18.323Z,14.30
2022-11-27T06:18:49.714Z,14.29
2022-11-27T06:19:21.211Z,14.29
2022-11-27T06:19:52.607Z,14.29
2022-11-27T06:20:24.013Z,14.29
2022-11-27T06:20:55.415Z,14.28
2022-11-27T06:21:26.813Z,14.28
2022-11-27T06:21:58.204Z,14.27
2022-11-27T06:22:29.587Z,14.28
2022-11-27T06:23:00.999Z,14.27
2022-11-27T06:23:32.405Z,14.27
2022-11-27T06:24:03.818Z,14.27
2022-11-27T06:24:35.268Z,14.27
2022-11-27T06:25:06.651Z,14.27
2022-11-27T06:25:38.059Z,14.26
2022-11-27T06:26:09.509Z,14.27
2022-11-27T06:26:40.927Z,14.26
2022-11-27T06:27:12.322Z,14.26
2022-11-27T06:27:43.715Z,14.26
2022-11-27T06:28:15.108Z,14.26
2022-11-27T06:28:46.513Z,14.25
2022-11-27T06:29:17.913Z,14.25
2022-11-27T06:29:49.440Z,14.25
2022-11-27T06:30:20.850Z,14.24
2022-11-27T06:30:52.242Z,14.25
2022-11-27T06:31:23.722Z,14.25
2022-11-27T06:31:55.227Z,14.25
2022-11-27T06:32:26.726Z,14.24
2022-11-27T06:32:58.119Z,14.24
2022-11-27T06:33:29.530Z,14.24
2022-11-27T06:34:00.927Z,14.24
2022-11-27T06:34:32.315Z,14.24
2022-11-27T06:35:03.805Z,14.23
2022-11-27T06:35:35.195Z,14.23
2022-11-27T06:36:06.609Z,14.24
2022-11-27T06:36:38.003Z,14.23
2022-11-27T06:37:13.204Z,14.24
2022-11-27T06:37:45.031Z,14.23
2022-11-27T06:38:16.424Z,14.23
2022-11-27T06:38:47.815Z,14.23
2022-11-27T06:39:19.206Z,14.23
2022-11-27T06:39:50.611Z,14.23
2022-11-27T06:40:22.062Z,14.22
2022-11-27T06:40:53.453Z,14.22
2022-11-27T06:41:24.868Z,14.22
2022-11-27T06:41:56.261Z,14.22
2022-11-27T06:42:27.662Z,14.22
2022-11-27T06:42:59.434Z,14.22
2022-11-27T06:43:30.916Z,14.21
2022-11-27T06:44:02.998Z,14.20
2022-11-27T06:44:36.011Z,14.21
2022-11-27T06:45:08.181Z,14.20